createdAt,value
2023-05-14T00:01:00.547Z,14.78
2023-05-14T00:03:27.249Z,14.70
2023-05-14T00:05:53.796Z,14.72
2023-05-14T00:08:20.349Z,14.74
2023-05-14T00:10:46.994Z,14.56
2023-05-14T00:13:13.724Z,14.74
2023-05-14T00:15:40.206Z,14.76
2023-05-14T00:18:07.119Z,14.72
2023-05-14T00:20:33.600Z,14.77
2023-05-14T00:23:01.021Z,14.72
2023-05-14T00:25:27.652Z,14.71
2023-05-14T00:27:54.080Z,14.58
2023-05-14T00:30:20.706Z,14.56
2023-05-14T00:32:47.170Z,14.57
2023-05-14T00:35:13.632Z,14.59
2023-05-14T00:37:40.080Z,14.53
2023-05-14T00:40:08.510Z,14.52
2023-05-14T00:42:35.021Z,14.55
2023-05-14T00:45:01.508Z,14.44
2023-05-14T00:47:28.163Z,14.30
2023-05-14T00:49:54.599Z,14.45
2023-05-14T00:52:22.068Z,14.44
2023-05-14T00:54:49.285Z,14.42
2023-05-14T00:57:15.807Z,14.35
2023-05-14T00:59:42.773Z,14.34
2023-05-14T01:02:09.384Z,14.26
2023-05-14T01:04:36.185Z,14.26
2023-05-14T01:07:27.596Z,14.29
2023-05-14T01:10:04.087Z,14.28
2023-05-14T01:12:40.756Z,14.08
2023-05-14T01:15:19.346Z,14.22
2023-05-14T01:17:52.095Z,14.19
2023-05-14T01:20:18.692Z,13.90
2023-05-14T01:22:45.356Z,14.08
2023-05-14T01:25:11.974Z,14.04
2023-05-14T01:27:52.850Z,13.90
2023-05-14T01:30:29.366Z,14.13
2023-05-14T01:32:58.865Z,14.08
2023-05-14T01:35:27.727Z,13.76
2023-05-14T01:37:56.746Z,14.08
2023-05-14T01:40:24.253Z,14.09
2023-05-14T01:42:51.964Z,14.05
2023-05-14T01:45:21.357Z,13.94
2023-05-14T01:47:48.025Z,13.87
2023-05-14T01:50:14.513Z,13.96
2023-05-14T01:52:41.039Z,13.88
2023-05-14T01:55:07.892Z,13.87
2023-05-14T01:57:34.427Z,13.89
2023-05-14T02:00:00.872Z,13.94
2023-05-14T02:02:27.324Z,13.82
2023-05-14T02:04:53.812Z,13.87
2023-05-14T02:07:20.233Z,13.88
2023-05-14T02:09:46.684Z,13.89
2023-05-14T02:12:13.124Z,13.76
2023-05-14T02:14:39.615Z,13.77
2023-05-14T02:17:06.076Z,13.76
2023-05-14T02:19:32.503Z,13.79
2023-05-14T02:22:00.202Z,13.79
2023-05-14T02:24:27.007Z,13.73
2023-05-14T02:26:53.460Z,13.80
2023-05-14T02:29:20.408Z,13.77
2023-05-14T02:31:46.873Z,13.57
2023-05-14T02:34:13.385Z,13.70
2023-05-14T02:36:40.022Z,13.73
2023-05-14T02:39:06.657Z,13.69
2023-05-14T02:41:33.124Z,13.70
2023-05-14T02:43:59.677Z,13.70
2023-05-14T02:46:26.233Z,13.55
2023-05-14T02:48:52.802Z,13.61
2023-05-14T02:51:20.137Z,13.66
2023-05-14T02:53:46.908Z,13.59
2023-05-14T02:56:13.291Z,13.60
2023-05-14T02:58:39.782Z,13.58
2023-05-14T03:01:06.216Z,13.55
2023-05-14T03:03:33.830Z,13.51
2023-05-14T03:06:00.843Z,13.51
2023-05-14T03:08:27.266Z,13.52
2023-05-14T03:10:53.683Z,13.47
2023-05-14T03:13:20.813Z,13.53
2023-05-14T03:15:47.678Z,13.45
2023-05-14T03:18:14.445Z,13.50
2023-05-14T03:20:41.617Z,13.50
2023-05-14T03:23:08.104Z,13.42
2023-05-14T03:25:34.582Z,13.32
2023-05-14T03:28:01.001Z,13.58
2023-05-14T03:30:27.560Z,13.54
2023-05-14T03:32:54.210Z,13.50
2023-05-14T03:35:20.709Z,13.49
2023-05-14T03:37:47.133Z,13.45
2023-05-14T03:40:13.525Z,13.49
2023-05-14T03:42:39.954Z,13.41
2023-05-14T03:45:07.133Z,13.41
2023-05-14T03:47:33.567Z,13.42
2023-05-14T03:50:00.100Z,13.44
2023-05-14T03:52:26.552Z,13.36
2023-05-14T03:54:52.963Z,13.42
2023-05-14T03:57:19.351Z,13.38
2023-05-14T03:59:45.739Z,13.29
2023-05-14T04:02:12.227Z,13.35
2023-05-14T04:04:38.743Z,13.37
2023-05-14T04:07:05.252Z,13.38
2023-05-14T04:09:31.777Z,13.39
2023-05-14T04:11:58.209Z,13.37
2023-05-14T04:14:24.879Z,13.35
2023-05-14T04:16:51.455Z,13.28
2023-05-14T04:19:18.491Z,13.38
2023-05-14T04:21:45.256Z,13.28
2023-05-14T04:24:11.680Z,13.35
2023-05-14T04:26:38.066Z,13.29
2023-05-14T04:29:04.465Z,13.30
2023-05-14T04:31:31.653Z,13.29
2023-05-14T04:33:58.158Z,13.14
2023-05-14T04:36:24.838Z,13.26
2023-05-14T04:38:51.828Z,13.26
2023-05-14T04:41:18.272Z,13.29
2023-05-14T04:43:44.706Z,13.29
2023-05-14T04:46:11.519Z,13.35
2023-05-14T04:48:38.122Z,13.31
2023-05-14T04:51:06.348Z,13.38
2023-05-14T04:53:33.576Z,13.44
2023-05-14T04:55:59.985Z,13.42
2023-05-14T04:58:28.858Z,13.39
2023-05-14T05:00:55.324Z,13.54
2023-05-14T05:03:21.875Z,13.58
2023-05-14T05:05:48.383Z,13.58
2023-05-14T05:08:14.884Z,13.62
2023-05-14T05:10:41.378Z,13.63
2023-05-14T05:13:07.822Z,13.66
2023-05-14T05:15:34.259Z,13.69
2023-05-14T05:18:00.854Z,13.79
2023-05-14T05:20:28.278Z,13.85
2023-05-14T05:22:54.880Z,13.80
2023-05-14T05:25:21.556Z,13.82
2023-05-14T05:27:48.004Z,13.87
2023-05-14T05:30:14.430Z,13.89
2023-05-14T05:32:41.076Z,13.72
2023-05-14T05:35:07.795Z,14.00
2023-05-14T05:37:34.225Z,13.94
2023-05-14T05:40:00.757Z,14.03
2023-05-14T05:42:27.220Z,14.02
2023-05-14T05:44:53.652Z,14.09
2023-05-14T05:47:20.087Z,14.09
2023-05-14T05:49:46.576Z,14.17
2023-05-14T05:52:13.298Z,14.08
2023-05-14T05:54:39.886Z,14.12
2023-05-14T05:57:06.298Z,14.10
2023-05-14T05:59:32.824Z,13.99
2023-05-14T06:01:59.315Z,14.17
2023-05-14T06:04:25.722Z,14.67
2023-05-14T06:06:52.358Z,14.88
2023-05-14T06:09:18.733Z,15.10
2023-05-14T06:11:45.230Z,15.31
2023-05-14T06:14:11.674Z,15.41
2023-05-14T06:16:38.195Z,15.52
2023-05-14T06:19:04.723Z,15.67
2023-05-14T06:21:31.373Z,15.53
2023-05-14T06:23:57.811Z,15.51
2023-05-14T06:26:24.258Z,15.57
2023-05-14T06:28:50.638Z,15.50
2023-05-14T06:31:17.552Z,15.56
2023-05-14T06:33:44.345Z,15.59
2023-05-14T06:36:10.901Z,15.64
2023-05-14T06:38:37.687Z,15.71
2023-05-14T06:41:04.138Z,15.78
2023-05-14T06:43:30.632Z,15.73
2023-05-14T06:45:57.122Z,15.76
2023-05-14T06:48:23.681Z,15.96
2023-05-14T06:50:50.242Z,16.06
2023-05-14T06:53:17.038Z,16.09
2023-05-14T06:55:43.522Z,16.18
2023-05-14T06:58:09.983Z,16.14
2023-05-14T07:00:36.403Z,16.18
2023-05-14T07:03:02.952Z,16.25
2023-05-14T07:05:29.512Z,16.35
2023-05-14T07:07:55.997Z,16.53
2023-05-14T07:10:23.088Z,16.61
2023-05-14T07:12:49.906Z,16.44
2023-05-14T07:15:16.616Z,16.43
2023-05-14T07:17:43.093Z,16.33
2023-05-14T07:20:10.322Z,16.29
2023-05-14T07:22:36.779Z,16.23
2023-05-14T07:25:03.536Z,16.24
2023-05-14T07:27:29.974Z,16.15
2023-05-14T07:29:56.461Z,16.17
2023-05-14T07:32:25.146Z,16.10
2023-05-14T07:34:51.735Z,16.23
2023-05-14T07:37:18.798Z,16.17
2023-05-14T07:39:45.262Z,16.11
2023-05-14T07:42:13.744Z,16.18
2023-05-14T07:44:46.016Z,16.14
2023-05-14T07:47:12.474Z,16.07
2023-05-14T07:49:38.952Z,15.91
2023-05-14T07:52:05.615Z,15.94
2023-05-14T07:54:32.037Z,15.85
2023-05-14T07:56:58.436Z,15.90
2023-05-14T07:59:24.966Z,15.87
2023-05-14T08:01:51.511Z,15.83
2023-05-14T08:04:18.192Z,15.82
2023-05-14T08:06:44.703Z,15.88
2023-05-14T08:09:11.278Z,15.85
2023-05-14T08:11:37.707Z,15.91
2023-05-14T08:14:04.123Z,15.95
2023-05-14T08:16:30.638Z,16.01
2023-05-14T08:18:57.138Z,16.11
2023-05-14T08:21:28.080Z,16.14
2023-05-14T08:23:54.476Z,16.22
2023-05-14T08:26:21.943Z,16.29
2023-05-14T08:28:48.373Z,16.41
2023-05-14T08:31:14.894Z,16.45
2023-05-14T08:33:41.356Z,16.51
2023-05-14T08:36:08.012Z,16.66
2023-05-14T08:38:34.447Z,16.83
2023-05-14T08:41:01.151Z,16.82
2023-05-14T08:43:35.861Z,16.95
2023-05-14T08:46:06.015Z,17.01
2023-05-14T08:48:34.409Z,16.98
2023-05-14T08:51:02.005Z,17.07
2023-05-14T08:53:28.543Z,17.15
2023-05-14T08:55:55.057Z,17.12
2023-05-14T08:58:21.657Z,17.32
2023-05-14T09:00:48.254Z,17.23
2023-05-14T09:03:15.971Z,17.37
2023-05-14T09:05:42.770Z,17.39
2023-05-14T09:08:09.188Z,17.42
2023-05-14T09:10:35.569Z,17.46
2023-05-14T09:13:02.001Z,17.58
2023-05-14T09:15:29.621Z,17.72
2023-05-14T09:17:57.016Z,17.72
2023-05-14T09:20:25.073Z,17.75
2023-05-14T09:22:54.848Z,17.86
2023-05-14T09:25:27.267Z,17.64
2023-05-14T09:27:56.197Z,17.89
2023-05-14T09:30:25.482Z,17.90
2023-05-14T09:32:54.489Z,17.63
2023-05-14T09:35:24.436Z,18.04
2023-05-14T09:37:53.676Z,18.08
2023-05-14T09:40:22.395Z,18.16
2023-05-14T09:42:49.561Z,18.16
2023-05-14T09:45:16.727Z,18.27
2023-05-14T09:47:43.288Z,18.26
2023-05-14T09:50:09.981Z,18.35
2023-05-14T09:52:37.305Z,18.42
2023-05-14T09:55:04.194Z,18.35
2023-05-14T09:57:30.934Z,18.47
2023-05-14T09:59:57.392Z,18.58
2023-05-14T10:02:38.528Z,18.60
2023-05-14T10:05:07.037Z,18.57
2023-05-14T10:07:43.006Z,18.68
2023-05-14T10:10:15.277Z,18.74
2023-05-14T10:12:44.758Z,18.83
2023-05-14T10:15:19.579Z,18.91
2023-05-14T10:17:50.011Z,19.02
2023-05-14T10:20:17.655Z,19.00
2023-05-14T10:22:44.244Z,19.02
2023-05-14T10:25:11.246Z,18.86
2023-05-14T10:27:38.186Z,19.11
2023-05-14T10:30:10.263Z,18.95
2023-05-14T10:32:37.932Z,19.21
2023-05-14T10:35:16.632Z,19.32
2023-05-14T10:37:44.749Z,19.38
2023-05-14T10:40:12.984Z,19.45
2023-05-14T10:42:40.947Z,19.43
2023-05-14T10:45:11.567Z,19.59
2023-05-14T10:47:40.534Z,19.64
2023-05-14T10:50:10.037Z,19.79
2023-05-14T10:52:36.961Z,19.68
2023-05-14T10:55:08.282Z,19.66
2023-05-14T10:57:38.105Z,19.76
2023-05-14T11:00:10.711Z,19.81
2023-05-14T11:02:39.311Z,19.89
2023-05-14T11:05:15.574Z,19.86
2023-05-14T11:07:48.739Z,20.03
2023-05-14T11:10:17.463Z,20.05
2023-05-14T11:12:48.806Z,20.06
2023-05-14T11:15:18.472Z,20.19
2023-05-14T11:17:46.922Z,20.21
2023-05-14T11:20:14.065Z,20.22
2023-05-14T11:22:41.899Z,20.14
2023-05-14T11:25:09.578Z,20.23
2023-05-14T11:27:38.668Z,20.34
2023-05-14T11:30:06.618Z,20.33
2023-05-14T11:32:33.373Z,20.46
2023-05-14T11:34:59.788Z,20.45
2023-05-14T11:37:26.194Z,20.56
2023-05-14T11:39:54.331Z,20.56
2023-05-14T11:42:22.226Z,20.71
2023-05-14T11:44:52.000Z,20.65
2023-05-14T11:47:20.322Z,20.88
2023-05-14T11:49:47.941Z,20.99
2023-05-14T11:52:16.341Z,21.10
2023-05-14T11:54:44.273Z,21.11
2023-05-14T11:57:21.849Z,20.97
2023-05-14T11:59:55.607Z,21.35
2023-05-14T12:02:23.002Z,21.57
2023-05-14T12:04:54.801Z,21.54
2023-05-14T12:07:21.318Z,21.59
2023-05-14T12:09:49.701Z,21.66
2023-05-14T12:12:21.343Z,21.60
2023-05-14T12:14:49.371Z,21.58
2023-05-14T12:17:20.816Z,21.49
2023-05-14T12:19:54.324Z,21.47
2023-05-14T12:22:22.997Z,21.53
2023-05-14T12:24:54.551Z,22.19
2023-05-14T12:27:26.164Z,22.39
2023-05-14T12:30:20.569Z,22.78
2023-05-14T12:32:51.896Z,23.27
2023-05-14T12:35:18.687Z,23.50
2023-05-14T12:37:45.175Z,23.73
2023-05-14T12:40:11.898Z,23.81
2023-05-14T12:42:38.369Z,23.88
2023-05-14T12:45:08.737Z,24.02
2023-05-14T12:47:36.311Z,23.90
2023-05-14T12:50:03.543Z,23.97
2023-05-14T12:54:59.307Z,24.19
2023-05-14T12:57:27.730Z,24.27
2023-05-14T12:59:55.251Z,24.09
2023-05-14T13:02:21.943Z,24.40
2023-05-14T13:04:48.379Z,24.21
2023-05-14T13:07:15.521Z,24.01
2023-05-14T13:09:41.934Z,23.93
2023-05-14T13:12:09.044Z,23.72
2023-05-14T13:14:36.419Z,23.71
2023-05-14T13:17:04.237Z,23.80
2023-05-14T13:19:30.776Z,23.77
2023-05-14T13:21:57.398Z,23.85
2023-05-14T13:24:25.014Z,23.74
2023-05-14T13:26:51.499Z,23.57
2023-05-14T13:29:17.952Z,23.54
2023-05-14T13:31:44.381Z,23.60
2023-05-14T13:34:10.842Z,23.43
2023-05-14T13:36:39.629Z,23.42
2023-05-14T13:39:06.880Z,23.35
2023-05-14T13:41:37.656Z,23.33
2023-05-14T13:44:04.684Z,23.24
2023-05-14T13:46:31.158Z,23.28
2023-05-14T13:48:57.561Z,23.15
2023-05-14T13:51:23.975Z,23.26
2023-05-14T13:53:50.539Z,23.38
2023-05-14T13:56:16.963Z,23.51
2023-05-14T13:58:43.445Z,23.52
2023-05-14T14:01:09.872Z,23.59
2023-05-14T14:03:36.386Z,23.57
2023-05-14T14:06:03.109Z,23.89
2023-05-14T14:08:29.602Z,23.91
2023-05-14T14:10:56.064Z,24.14
2023-05-14T14:13:22.962Z,24.13
2023-05-14T14:15:50.220Z,24.03
2023-05-14T14:18:16.753Z,24.18
2023-05-14T14:20:43.227Z,24.25
2023-05-14T14:23:09.630Z,24.42
2023-05-14T14:25:36.040Z,24.15
2023-05-14T14:28:02.473Z,24.08
2023-05-14T14:30:28.943Z,23.94
2023-05-14T14:32:55.517Z,23.63
2023-05-14T14:35:22.218Z,23.62
2023-05-14T14:37:50.711Z,23.56
2023-05-14T14:40:17.273Z,23.57
2023-05-14T14:42:44.297Z,23.67
2023-05-14T14:45:11.773Z,23.61
2023-05-14T14:47:38.223Z,23.74
2023-05-14T14:50:05.899Z,23.78
2023-05-14T14:52:32.385Z,23.61
2023-05-14T14:54:58.852Z,23.33
2023-05-14T14:57:26.712Z,23.07
2023-05-14T14:59:53.113Z,22.88
2023-05-14T15:02:20.014Z,22.66
2023-05-14T15:04:46.475Z,22.56
2023-05-14T15:07:13.035Z,22.35
2023-05-14T15:09:39.531Z,22.26
2023-05-14T15:12:06.355Z,22.33
2023-05-14T15:14:32.838Z,22.19
2023-05-14T15:16:59.325Z,22.11
2023-05-14T15:19:25.765Z,21.98
2023-05-14T15:21:52.432Z,21.99
2023-05-14T15:24:18.872Z,21.89
2023-05-14T15:26:45.746Z,21.85
2023-05-14T15:29:12.178Z,21.88
2023-05-14T15:31:39.753Z,21.85
2023-05-14T15:34:06.358Z,21.82
2023-05-14T15:36:32.861Z,21.90
2023-05-14T15:38:59.902Z,21.85
2023-05-14T15:41:28.683Z,21.89
2023-05-14T15:43:56.072Z,21.81
2023-05-14T15:46:23.671Z,21.75
2023-05-14T15:48:50.172Z,21.74
2023-05-14T15:51:16.682Z,21.87
2023-05-14T15:53:43.159Z,21.86
2023-05-14T15:56:09.915Z,21.80
2023-05-14T15:58:36.359Z,21.86
2023-05-14T16:01:02.973Z,21.83
2023-05-14T16:03:29.466Z,21.72
2023-05-14T16:05:56.094Z,21.44
2023-05-14T16:08:22.594Z,21.64
2023-05-14T16:10:48.987Z,21.61
2023-05-14T16:13:15.538Z,21.36
2023-05-14T16:15:42.183Z,21.21
2023-05-14T16:18:08.918Z,21.06
2023-05-14T16:20:35.404Z,21.01
2023-05-14T16:23:01.794Z,20.78
2023-05-14T16:25:30.592Z,20.88
2023-05-14T16:27:57.430Z,20.83
2023-05-14T16:30:24.188Z,20.76
2023-05-14T16:32:50.924Z,20.69
2023-05-14T16:35:17.402Z,20.66
2023-05-14T16:37:43.796Z,20.46
2023-05-14T16:40:11.727Z,20.33
2023-05-14T16:42:38.684Z,20.26
2023-05-14T16:45:05.599Z,20.25
2023-05-14T16:47:32.048Z,20.13
2023-05-14T16:49:58.595Z,19.88
2023-05-14T16:52:25.131Z,19.83
2023-05-14T16:54:51.554Z,19.65
2023-05-14T16:57:18.009Z,19.75
2023-05-14T16:59:45.329Z,19.74
2023-05-14T17:02:11.740Z,19.60
2023-05-14T17:04:41.836Z,19.51
2023-05-14T17:07:08.460Z,19.49
2023-05-14T17:09:34.991Z,19.41
2023-05-14T17:12:01.461Z,19.37
2023-05-14T17:14:27.902Z,19.42
2023-05-14T17:16:54.818Z,19.36
2023-05-14T17:19:21.267Z,19.11
2023-05-14T17:21:47.804Z,18.92
2023-05-14T17:24:14.203Z,18.88
2023-05-14T17:26:40.699Z,18.84
2023-05-14T17:29:07.098Z,18.83
2023-05-14T17:31:33.574Z,18.89
2023-05-14T17:33:59.978Z,18.86
2023-05-14T17:36:28.425Z,18.87
2023-05-14T17:38:54.986Z,18.88
2023-05-14T17:41:21.605Z,18.77
2023-05-14T17:43:48.042Z,18.62
2023-05-14T17:46:14.516Z,18.48
2023-05-14T17:48:40.975Z,18.33
2023-05-14T17:51:07.437Z,18.23
2023-05-14T17:53:33.838Z,18.19
2023-05-14T17:56:00.260Z,18.01
2023-05-14T17:58:26.784Z,18.12
2023-05-14T18:00:53.385Z,18.03
2023-05-14T18:03:20.368Z,17.79
2023-05-14T18:05:47.285Z,17.73
2023-05-14T18:08:14.539Z,17.64
2023-05-14T18:10:40.952Z,17.59
2023-05-14T18:13:07.394Z,17.52
2023-05-14T18:15:35.225Z,17.48
2023-05-14T18:18:01.709Z,17.44
2023-05-14T18:20:28.284Z,17.55
2023-05-14T18:22:54.707Z,17.51
2023-05-14T18:25:21.110Z,17.80
2023-05-14T18:27:47.602Z,17.82
2023-05-14T18:30:15.345Z,17.76
2023-05-14T18:32:43.872Z,17.80
2023-05-14T18:35:11.616Z,17.86
2023-05-14T18:37:38.167Z,17.88
2023-05-14T18:40:05.221Z,17.85
2023-05-14T18:42:31.694Z,18.02
2023-05-14T18:44:58.151Z,17.82
2023-05-14T18:47:24.790Z,17.73
2023-05-14T18:49:55.093Z,17.60
2023-05-14T18:52:22.857Z,17.50
2023-05-14T18:54:50.829Z,17.32
2023-05-14T18:57:17.326Z,17.29
2023-05-14T18:59:43.761Z,17.24
2023-05-14T19:02:10.187Z,17.12
2023-05-14T19:04:50.624Z,16.97
2023-05-14T19:07:18.792Z,16.94
2023-05-14T19:09:46.465Z,16.88
2023-05-14T19:12:13.400Z,16.92
2023-05-14T19:14:39.815Z,16.93
2023-05-14T19:17:06.286Z,16.88
2023-05-14T19:19:32.768Z,16.78
2023-05-14T19:21:59.267Z,16.84
2023-05-14T19:24:25.849Z,16.79
2023-05-14T19:26:52.637Z,16.74
2023-05-14T19:29:19.196Z,16.78
2023-05-14T19:31:45.748Z,16.86
2023-05-14T19:34:12.188Z,16.83
2023-05-14T19:36:38.742Z,16.83
2023-05-14T19:39:05.240Z,16.91
2023-05-14T19:41:31.637Z,16.88
2023-05-14T19:43:58.116Z,17.04
2023-05-14T19:46:24.663Z,16.86
2023-05-14T19:48:51.093Z,16.78
2023-05-14T19:51:17.519Z,16.74
2023-05-14T19:53:43.966Z,16.69
2023-05-14T19:56:10.910Z,16.77
2023-05-14T19:58:37.374Z,16.77
2023-05-14T20:01:04.350Z,16.71
2023-05-14T20:03:30.925Z,16.78
2023-05-14T20:05:57.965Z,16.87
2023-05-14T20:08:24.958Z,16.92
2023-05-14T20:10:54.066Z,16.89
2023-05-14T20:13:22.376Z,16.92
2023-05-14T20:15:50.333Z,16.83
2023-05-14T20:18:16.892Z,16.78
2023-05-14T20:20:43.881Z,16.77
2023-05-14T20:23:10.264Z,16.84
2023-05-14T20:25:36.678Z,16.84
2023-05-14T20:28:04.286Z,16.68
2023-05-14T20:30:31.019Z,16.86
2023-05-14T20:32:57.750Z,16.78
2023-05-14T20:35:24.371Z,16.72
2023-05-14T20:37:52.221Z,16.53
2023-05-14T20:40:18.851Z,16.40
2023-05-14T20:42:45.469Z,16.14
2023-05-14T20:45:11.947Z,16.00
2023-05-14T20:47:38.655Z,15.79
2023-05-14T20:50:05.709Z,15.70
2023-05-14T20:52:32.160Z,15.42
2023-05-14T20:55:00.846Z,15.50
2023-05-14T20:57:28.424Z,15.38
2023-05-14T20:59:54.875Z,15.31
2023-05-14T21:02:21.536Z,15.33
2023-05-14T21:04:48.241Z,15.33
2023-05-14T21:07:14.757Z,15.20
2023-05-14T21:09:41.184Z,14.94
2023-05-14T21:12:08.310Z,15.05
2023-05-14T21:14:34.769Z,15.04
2023-05-14T21:17:01.212Z,14.90
2023-05-14T21:19:27.614Z,14.98
2023-05-14T21:21:54.007Z,15.01
2023-05-14T21:24:20.541Z,14.95
2023-05-14T21:26:46.980Z,14.79
2023-05-14T21:29:13.466Z,14.83
2023-05-14T21:31:39.997Z,14.57
2023-05-14T21:34:06.427Z,14.73
2023-05-14T21:36:33.076Z,14.76
2023-05-14T21:38:59.497Z,14.67
2023-05-14T21:41:25.925Z,14.61
2023-05-14T21:43:52.588Z,14.63
2023-05-14T21:46:19.150Z,14.47
2023-05-14T21:48:45.762Z,14.38
2023-05-14T21:51:12.260Z,14.47
2023-05-14T21:53:38.700Z,14.40
2023-05-14T21:56:06.088Z,14.40
2023-05-14T21:58:32.619Z,14.30
2023-05-14T22:00:59.078Z,14.34
2023-05-14T22:03:25.738Z,14.39
2023-05-14T22:05:53.156Z,14.29
2023-05-14T22:08:19.607Z,14.37
2023-05-14T22:10:46.948Z,14.23
2023-05-14T22:13:13.379Z,14.33
2023-05-14T22:15:39.874Z,14.28
2023-05-14T22:18:06.927Z,14.21
2023-05-14T22:20:33.395Z,14.22
2023-05-14T22:22:59.810Z,14.19
2023-05-14T22:25:26.424Z,14.21
2023-05-14T22:27:53.083Z,14.08
2023-05-14T22:30:19.544Z,14.04
2023-05-14T22:32:46.117Z,13.90
2023-05-14T22:35:12.711Z,14.03
2023-05-14T22:37:39.123Z,14.11
2023-05-14T22:40:07.371Z,14.12
2023-05-14T22:42:33.823Z,14.06
2023-05-14T22:45:00.284Z,14.10
2023-05-14T22:47:26.936Z,13.95
2023-05-14T22:49:53.368Z,14.02
2023-05-14T22:52:19.864Z,13.90
2023-05-14T22:54:46.694Z,13.89
2023-05-14T22:57:13.208Z,13.89
2023-05-14T22:59:39.725Z,14.00
2023-05-14T23:02:06.801Z,14.00
2023-05-14T23:04:33.492Z,14.00
2023-05-14T23:07:00.047Z,14.05
2023-05-14T23:09:26.584Z,14.06
2023-05-14T23:11:53.126Z,13.98
2023-05-14T23:14:19.708Z,14.02
2023-05-14T23:16:46.190Z,14.06
2023-05-14T23:19:12.999Z,13.93
2023-05-14T23:21:39.534Z,13.74
2023-05-14T23:24:06.253Z,13.90
2023-05-14T23:26:32.763Z,13.89
2023-05-14T23:28:59.169Z,13.83
2023-05-14T23:31:25.711Z,13.83
2023-05-14T23:33:52.395Z,13.74
2023-05-14T23:36:18.904Z,13.73
2023-05-14T23:38:45.808Z,13.75
2023-05-14T23:41:12.222Z,13.68
2023-05-14T23:43:38.658Z,13.79
2023-05-14T23:46:05.382Z,13.79
2023-05-14T23:48:31.956Z,13.72
2023-05-14T23:50:58.416Z,13.77
2023-05-14T23:53:24.974Z,13.72
2023-05-14T23:55:51.615Z,13.67
2023-05-14T23:58:18.209Z,13.63
